Time;durP1;ratioP1;P1;durP2;ratioP2;P2;SDS_P1;SDS_P2;PMS_P1;PMS_P2;Temp;Humidity;BMP_temperature;BMP_pressure;BME280_temperature;BME280_humidity;BME280_pressure;Samples;Min_cycle;Max_cycle;Signal;HPM_P1;HPM_P2
2022/01/26 00:07:14;;;;;;;53.75;19.27;;;4.70;99.90;;;;;;5010406;28;20393;-75
2022/01/26 00:09:39;;;;;;;52.70;19.73;;;4.60;99.90;;;;;;4997685;28;20026;-75
2022/01/26 00:12:05;;;;;;;50.33;18.25;;;4.60;99.90;;;;;;5009304;28;20499;-75
2022/01/26 00:14:31;;;;;;;54.28;19.50;;;4.60;99.90;;;;;;5012077;28;20041;-75
2022/01/26 00:16:59;;;;;;;46.35;16.90;;;4.60;99.90;;;;;;5014110;28;20026;-75
2022/01/26 00:19:32;;;;;;;49.05;17.50;;;4.70;99.90;;;;;;5013887;28;20076;-75
2022/01/26 00:21:58;;;;;;;44.30;16.50;;;4.70;99.90;;;;;;5014372;28;20030;-75
2022/01/26 00:29:48;;;;;;;49.17;16.70;;;4.80;99.90;;;;;;4907471;29;20032;-75
2022/01/26 00:40:26;;;;;;;46.17;15.88;;;4.70;99.90;;;;;;4910408;29;20068;-75
2022/01/26 00:42:55;;;;;;;41.20;15.40;;;4.70;99.90;;;;;;4909334;29;20028;-76
2022/01/26 00:45:25;;;;;;;42.30;16.52;;;4.70;99.90;;;;;;4903595;29;20088;-77
2022/01/26 00:47:51;;;;;;;45.17;15.48;;;4.70;99.90;;;;;;4913375;29;20494;-75
2022/01/26 00:50:17;;;;;;;50.15;16.88;;;4.70;99.90;;;;;;4909691;29;20040;-76
2022/01/26 00:56:24;;;;;;;36.28;13.90;;;4.60;99.90;;;;;;4909861;29;20109;-75
2022/01/26 00:58:49;;;;;;;44.45;15.63;;;4.60;99.90;;;;;;4906733;29;20028;-76
2022/01/26 01:01:15;;;;;;;49.70;16.35;;;4.50;99.90;;;;;;4910668;29;20028;-75
2022/01/26 01:03:44;;;;;;;45.63;15.73;;;4.50;99.90;;;;;;4949849;28;20120;-76
2022/01/26 01:06:24;;;;;;;44.35;16.20;;;4.50;99.90;;;;;;5008007;28;20022;-75
2022/01/26 01:08:50;;;;;;;46.83;16.98;;;4.40;99.90;;;;;;5014553;28;20064;-75
2022/01/26 01:11:16;;;;;;;43.80;15.80;;;4.40;99.90;;;;;;4999299;28;20520;-76
2022/01/26 01:13:43;;;;;;;47.15;16.63;;;4.40;99.90;;;;;;5012725;28;20029;-75
2022/01/26 01:16:16;;;;;;;48.53;17.75;;;4.40;99.90;;;;;;5010584;28;20364;-75
2022/01/26 01:18:54;;;;;;;47.03;17.35;;;4.40;99.90;;;;;;5015644;28;20018;-76
2022/01/26 01:27:17;;;;;;;48.85;16.35;;;4.40;99.90;;;;;;5007441;28;20026;-76
2022/01/26 01:29:47;;;;;;;42.45;15.70;;;4.40;99.90;;;;;;5016294;28;20072;-75
2022/01/26 01:32:16;;;;;;;48.38;17.30;;;4.50;99.90;;;;;;5015224;28;20108;-75
2022/01/26 01:34:42;;;;;;;51.53;18.02;;;4.40;99.90;;;;;;4988263;28;20500;-75
2022/01/26 01:37:14;;;;;;;48.78;16.48;;;4.40;99.90;;;;;;5012574;28;20057;-75
2022/01/26 01:39:40;;;;;;;46.90;16.23;;;4.40;99.90;;;;;;5016859;28;20471;-75
2022/01/26 01:42:07;;;;;;;43.35;16.15;;;4.40;99.90;;;;;;5012807;28;20112;-75
2022/01/26 01:44:33;;;;;;;46.50;16.23;;;4.40;99.90;;;;;;4989624;28;20137;-74
2022/01/26 01:46:59;;;;;;;45.65;18.02;;;4.50;99.90;;;;;;5009372;28;20123;-74
2022/01/26 01:49:25;;;;;;;45.42;17.00;;;4.50;99.90;;;;;;5016461;28;20030;-75
2022/01/26 01:51:56;;;;;;;48.17;16.88;;;4.50;99.90;;;;;;5010842;28;20029;-75
2022/01/26 01:54:22;;;;;;;46.17;16.35;;;4.50;99.90;;;;;;5002707;28;20050;-75
2022/01/26 01:56:55;;;;;;;44.95;15.55;;;4.50;99.90;;;;;;5010329;28;20034;-75
2022/01/26 01:59:33;;;;;;;47.83;15.75;;;4.40;99.90;;;;;;5009213;28;20026;-75
2022/01/26 02:02:00;;;;;;;46.70;16.05;;;4.50;99.90;;;;;;5014415;28;20423;-76
2022/01/26 02:04:26;;;;;;;48.45;15.30;;;4.40;99.90;;;;;;4999497;28;20040;-75
2022/01/26 02:06:51;;;;;;;44.67;16.30;;;4.40;99.90;;;;;;5007124;28;20068;-75
2022/01/26 02:09:17;;;;;;;47.97;18.65;;;4.40;99.90;;;;;;5011988;28;20140;-75
2022/01/26 02:11:48;;;;;;;47.13;16.92;;;4.40;99.90;;;;;;4995023;28;20018;-76
2022/01/26 02:14:22;;;;;;;50.67;16.15;;;4.50;99.90;;;;;;5009858;28;20026;-75
2022/01/26 02:55:43;;;;;;;43.90;17.73;;;4.40;99.90;;;;;;5011102;28;20040;-75
2022/01/26 03:03:23;;;;;;;45.40;17.92;;;4.40;99.90;;;;;;5014894;28;20014;-75
2022/01/26 03:06:00;;;;;;;44.63;17.35;;;4.50;99.90;;;;;;5007155;28;20022;-75
2022/01/26 03:08:33;;;;;;;45.55;16.60;;;4.40;99.90;;;;;;5018943;28;20153;-75
2022/01/26 03:11:05;;;;;;;50.60;18.80;;;4.40;99.90;;;;;;5007452;28;20021;-75
2022/01/26 03:13:33;;;;;;;48.20;18.17;;;4.40;99.90;;;;;;5014667;28;20156;-74
2022/01/26 03:16:07;;;;;;;46.85;18.65;;;4.50;99.90;;;;;;5012284;28;20033;-75
2022/01/26 03:21:03;;;;;;;52.88;19.98;;;4.50;99.90;;;;;;5003691;28;20034;-75
2022/01/26 03:29:11;;;;;;;58.30;20.77;;;4.40;99.90;;;;;;5001899;28;20432;-75
2022/01/26 03:34:22;;;;;;;56.38;21.33;;;4.40;99.90;;;;;;5007779;28;20036;-76
2022/01/26 03:37:01;;;;;;;57.13;21.88;;;4.40;99.90;;;;;;5008384;28;20058;-75
2022/01/26 03:39:28;;;;;;;51.72;20.63;;;4.40;99.90;;;;;;5009911;28;20026;-76
2022/01/26 03:42:05;;;;;;;65.00;21.13;;;4.30;99.90;;;;;;4992155;28;20029;-75
2022/01/26 03:44:32;;;;;;;60.25;21.10;;;4.40;99.90;;;;;;5002269;28;20120;-76
2022/01/26 03:46:58;;;;;;;51.45;19.02;;;4.40;99.90;;;;;;5004058;28;20022;-76
2022/01/26 03:49:24;;;;;;;58.17;20.65;;;4.40;99.90;;;;;;4994146;28;20045;-75
2022/01/26 03:51:49;;;;;;;58.28;22.15;;;4.40;99.90;;;;;;4991564;28;20083;-76
2022/01/26 03:54:17;;;;;;;54.28;21.85;;;4.30;99.90;;;;;;5008453;28;20037;-75
2022/01/26 03:56:43;;;;;;;56.17;20.25;;;4.40;99.90;;;;;;5013625;28;20022;-75
2022/01/26 03:59:09;;;;;;;58.35;20.98;;;4.30;99.90;;;;;;4986446;28;20180;-76
2022/01/26 04:01:36;;;;;;;62.85;21.77;;;4.30;99.90;;;;;;4984968;28;20049;-76
2022/01/26 04:04:02;;;;;;;63.08;22.17;;;4.30;99.90;;;;;;5005038;28;20026;-75
2022/01/26 04:06:30;;;;;;;54.17;20.75;;;4.30;99.90;;;;;;5004633;28;20026;-76
2022/01/26 04:08:56;;;;;;;57.47;20.02;;;4.30;99.90;;;;;;5009454;28;20026;-75
2022/01/26 04:11:47;;;;;;;55.58;19.77;;;4.30;99.90;;;;;;5010441;28;20431;-76
2022/01/26 04:14:13;;;;;;;54.40;19.65;;;4.30;99.90;;;;;;5015437;28;20497;-75
2022/01/26 04:16:40;;;;;;;54.30;20.38;;;4.30;99.90;;;;;;4988134;28;20155;-76
2022/01/26 04:19:07;;;;;;;53.47;20.63;;;4.30;99.90;;;;;;5011046;28;20036;-76
2022/01/26 04:29:11;;;;;;;54.75;19.25;;;4.30;99.90;;;;;;5014759;28;20510;-75
2022/01/26 04:31:36;;;;;;;47.00;18.98;;;4.30;99.90;;;;;;5017382;28;20037;-76
2022/01/26 04:34:02;;;;;;;57.42;19.38;;;4.30;99.90;;;;;;5009651;28;20029;-77
2022/01/26 04:36:34;;;;;;;54.22;19.27;;;4.30;99.90;;;;;;5009617;28;20136;-76
2022/01/26 04:39:05;;;;;;;52.83;19.58;;;4.20;99.90;;;;;;5012528;28;20088;-75
2022/01/26 04:41:43;;;;;;;51.80;17.63;;;4.20;99.90;;;;;;5006664;28;20041;-76
2022/01/26 04:44:32;;;;;;;46.88;17.33;;;4.20;99.90;;;;;;5012452;28;20109;-76
2022/01/26 04:46:57;;;;;;;50.45;17.30;;;4.30;99.90;;;;;;5015133;28;20699;-76
2022/01/26 04:49:23;;;;;;;43.78;16.27;;;4.20;99.90;;;;;;5022534;28;20115;-75
2022/01/26 04:51:49;;;;;;;43.33;16.15;;;4.20;99.90;;;;;;5013137;28;20026;-75
2022/01/26 04:54:14;;;;;;;44.08;15.23;;;4.20;99.90;;;;;;5007589;28;20057;-76
2022/01/26 04:56:41;;;;;;;43.67;16.17;;;4.20;99.90;;;;;;5007622;28;20416;-76
2022/01/26 04:59:07;;;;;;;41.90;15.73;;;4.20;99.90;;;;;;5010209;28;20030;-76
2022/01/26 05:01:33;;;;;;;43.13;15.23;;;4.20;99.90;;;;;;5004887;28;20452;-76
2022/01/26 05:03:59;;;;;;;40.22;14.02;;;4.20;99.90;;;;;;5009807;28;20045;-76
2022/01/26 05:06:25;;;;;;;35.70;14.48;;;4.20;99.90;;;;;;4989196;28;20110;-76
2022/01/26 05:08:51;;;;;;;38.40;14.27;;;4.20;99.90;;;;;;5005070;28;20431;-76
2022/01/26 05:11:27;;;;;;;39.30;15.50;;;4.20;99.90;;;;;;5004154;28;20523;-76
2022/01/26 05:13:54;;;;;;;37.58;14.90;;;4.20;99.90;;;;;;5004595;28;20057;-76
2022/01/26 05:16:20;;;;;;;40.28;14.77;;;4.20;99.90;;;;;;5004562;28;20083;-75
2022/01/26 05:18:45;;;;;;;38.10;14.63;;;4.20;99.90;;;;;;5003872;28;20018;-76
2022/01/26 05:21:11;;;;;;;39.53;14.30;;;4.20;99.90;;;;;;4988653;28;20049;-76
2022/01/26 05:23:37;;;;;;;38.72;13.88;;;4.20;99.90;;;;;;5005451;28;20432;-76
2022/01/26 05:26:02;;;;;;;38.55;13.60;;;4.20;99.90;;;;;;5004254;28;20033;-76
2022/01/26 05:28:28;;;;;;;40.92;15.82;;;4.30;99.90;;;;;;5001154;28;20797;-76
2022/01/26 05:30:54;;;;;;;38.83;14.40;;;4.20;99.90;;;;;;5001155;28;20392;-76
2022/01/26 05:33:20;;;;;;;43.45;14.00;;;4.20;99.90;;;;;;5003791;28;20384;-76
2022/01/26 05:35:45;;;;;;;38.40;14.45;;;4.30;99.90;;;;;;5006132;28;20034;-76
2022/01/26 05:38:11;;;;;;;37.30;14.15;;;4.20;99.90;;;;;;5003867;28;20030;-75
2022/01/26 05:40:37;;;;;;;35.45;13.68;;;4.20;99.90;;;;;;5001789;28;20018;-76
2022/01/26 05:43:03;;;;;;;37.78;14.30;;;4.20;99.90;;;;;;5008384;28;20409;-76
2022/01/26 05:45:35;;;;;;;38.85;13.48;;;4.20;99.90;;;;;;5004314;28;20030;-75
2022/01/26 05:48:08;;;;;;;39.45;13.80;;;4.20;99.90;;;;;;4987036;28;20531;-76
2022/01/26 05:50:34;;;;;;;35.75;13.57;;;4.10;99.90;;;;;;5003509;28;20040;-75
2022/01/26 05:53:00;;;;;;;42.33;14.75;;;4.10;99.90;;;;;;5005755;28;20034;-75
2022/01/26 05:55:26;;;;;;;35.95;12.95;;;4.10;99.90;;;;;;5005915;28;20057;-75
2022/01/26 05:57:52;;;;;;;38.13;14.80;;;4.10;99.90;;;;;;5003371;28;20026;-76
2022/01/26 06:00:17;;;;;;;43.65;16.17;;;4.10;99.90;;;;;;5006223;28;20369;-75
2022/01/26 06:02:44;;;;;;;41.67;16.05;;;4.10;99.90;;;;;;5006028;28;20029;-76
2022/01/26 06:05:10;;;;;;;44.58;15.35;;;4.10;99.90;;;;;;5004678;28;20053;-76
2022/01/26 06:07:35;;;;;;;37.35;14.52;;;4.10;99.90;;;;;;4990345;28;20034;-76
2022/01/26 06:10:01;;;;;;;46.08;15.57;;;4.20;99.90;;;;;;5009367;28;20080;-77
2022/01/26 06:12:29;;;;;;;45.28;16.70;;;4.20;99.90;;;;;;5006293;28;20116;-75
2022/01/26 06:14:55;;;;;;;38.15;15.40;;;4.20;99.90;;;;;;5010805;28;20510;-77
2022/01/26 06:17:21;;;;;;;40.22;14.90;;;4.20;99.90;;;;;;5003897;28;20133;-77
2022/01/26 06:19:46;;;;;;;38.85;15.02;;;4.20;99.90;;;;;;5002328;28;20110;-77
2022/01/26 06:22:12;;;;;;;41.00;14.90;;;4.20;99.90;;;;;;4989184;28;20050;-77
2022/01/26 06:24:37;;;;;;;39.83;15.50;;;4.20;99.90;;;;;;4994808;28;20030;-77
2022/01/26 06:27:03;;;;;;;45.60;16.02;;;4.20;99.90;;;;;;4991743;28;20160;-77
2022/01/26 06:29:31;;;;;;;39.40;15.23;;;4.20;99.90;;;;;;5010104;28;20504;-76
2022/01/26 06:31:57;;;;;;;42.40;15.32;;;4.10;99.90;;;;;;5008563;28;20550;-75
2022/01/26 06:34:23;;;;;;;40.40;15.15;;;4.20;99.90;;;;;;4993472;28;20034;-76
2022/01/26 06:36:49;;;;;;;40.95;15.38;;;4.20;99.90;;;;;;5009781;28;20034;-74
2022/01/26 06:39:15;;;;;;;39.88;14.80;;;4.10;99.90;;;;;;5003367;28;20029;-73
2022/01/26 06:41:48;;;;;;;37.05;15.00;;;4.10;99.90;;;;;;5004243;28;20488;-76
2022/01/26 06:44:21;;;;;;;43.53;15.65;;;4.20;99.90;;;;;;5009104;28;20079;-75
2022/01/26 06:47:18;;;;;;;36.05;14.10;;;4.20;99.90;;;;;;5011790;28;20022;-76
2022/01/26 06:49:44;;;;;;;42.65;15.40;;;4.10;99.90;;;;;;5012689;28;20125;-76
2022/01/26 06:52:10;;;;;;;38.45;14.57;;;4.20;99.90;;;;;;5010945;28;20057;-76
2022/01/26 06:54:36;;;;;;;52.10;18.15;;;4.10;99.90;;;;;;5011528;28;20057;-75
2022/01/26 06:57:01;;;;;;;38.58;15.63;;;4.20;99.90;;;;;;4993939;28;20084;-76
2022/01/26 06:59:27;;;;;;;31.98;13.13;;;4.20;99.90;;;;;;5009955;28;20057;-76
2022/01/26 07:01:53;;;;;;;40.55;15.13;;;4.20;99.90;;;;;;4996913;28;20498;-76
2022/01/26 07:04:19;;;;;;;39.65;16.90;;;4.20;99.90;;;;;;5014308;28;20025;-75
2022/01/26 07:06:44;;;;;;;38.45;15.02;;;4.20;99.90;;;;;;5012960;28;20025;-76
2022/01/26 07:09:10;;;;;;;36.35;13.85;;;4.20;99.90;;;;;;5009192;28;20037;-76
2022/01/26 07:11:36;;;;;;;41.63;15.30;;;4.20;99.90;;;;;;5008788;28;20028;-76
2022/01/26 07:14:06;;;;;;;37.53;15.52;;;4.20;99.90;;;;;;5012291;28;20034;-76
2022/01/26 07:22:00;;;;;;;42.25;14.85;;;4.10;99.90;;;;;;4992134;28;20431;-75
2022/01/26 07:24:26;;;;;;;41.95;16.10;;;4.00;99.90;;;;;;5007291;28;20045;-75
2022/01/26 07:26:54;;;;;;;37.10;15.25;;;4.10;99.90;;;;;;5012365;28;20061;-76
2022/01/26 07:29:23;;;;;;;37.92;15.27;;;4.00;99.90;;;;;;5013933;28;20049;-75
2022/01/26 07:31:49;;;;;;;40.20;15.00;;;4.00;99.90;;;;;;5008920;28;20065;-75
2022/01/26 07:34:16;;;;;;;38.03;14.38;;;4.00;99.90;;;;;;5009680;28;20105;-76
2022/01/26 07:36:48;;;;;;;42.30;15.50;;;4.00;99.90;;;;;;5011656;28;20052;-77
2022/01/26 07:39:17;;;;;;;38.58;15.65;;;3.90;99.90;;;;;;4994145;28;20102;-75
2022/01/26 07:41:43;;;;;;;44.95;16.70;;;3.90;99.90;;;;;;5007468;28;20029;-75
2022/01/26 07:44:08;;;;;;;47.40;15.35;;;3.90;99.90;;;;;;5011127;28;20030;-75
2022/01/26 07:46:34;;;;;;;43.50;15.70;;;3.90;99.90;;;;;;5008263;28;20030;-75
2022/01/26 07:49:00;;;;;;;45.75;17.17;;;3.90;99.90;;;;;;5009780;28;20041;-75
2022/01/26 07:51:26;;;;;;;48.03;18.25;;;3.90;99.90;;;;;;5011865;28;20025;-75
2022/01/26 07:53:51;;;;;;;43.28;16.55;;;3.90;99.90;;;;;;5004345;28;20491;-78
2022/01/26 07:56:17;;;;;;;48.25;16.38;;;3.90;99.90;;;;;;5006584;28;20511;-75
2022/01/26 07:58:45;;;;;;;46.92;16.83;;;3.90;99.90;;;;;;5006162;28;20030;-76
2022/01/26 08:01:11;;;;;;;44.50;16.23;;;3.90;99.90;;;;;;5008923;28;20021;-76
2022/01/26 08:03:37;;;;;;;41.13;15.50;;;3.90;99.90;;;;;;5002754;28;20551;-76
2022/01/26 08:06:14;;;;;;;40.88;15.98;;;4.00;99.90;;;;;;5005256;28;20025;-74
2022/01/26 08:08:40;;;;;;;55.17;17.27;;;3.90;99.90;;;;;;4989600;28;20081;-75
2022/01/26 08:11:05;;;;;;;48.63;17.23;;;3.90;99.90;;;;;;5005977;28;20037;-74
2022/01/26 08:13:31;;;;;;;44.72;17.15;;;3.90;99.90;;;;;;5004649;28;20059;-78
2022/01/26 08:15:57;;;;;;;47.47;18.05;;;3.90;99.90;;;;;;5006860;28;20500;-78
2022/01/26 08:18:24;;;;;;;51.67;18.20;;;3.90;99.90;;;;;;5005344;28;20049;-77
2022/01/26 08:20:51;;;;;;;47.70;17.50;;;3.90;99.90;;;;;;4992504;28;20026;-79
2022/01/26 08:23:19;;;;;;;46.08;16.85;;;3.80;99.90;;;;;;4987578;28;20033;-76
2022/01/26 08:25:44;;;;;;;42.88;16.63;;;3.80;99.90;;;;;;5007484;28;20068;-77
2022/01/26 08:28:19;;;;;;;47.90;17.08;;;3.90;99.90;;;;;;5005981;28;20057;-77
2022/01/26 08:30:45;;;;;;;45.40;17.75;;;3.80;99.90;;;;;;5005121;28;20033;-77
2022/01/26 08:33:10;;;;;;;49.00;17.42;;;3.90;99.90;;;;;;4989114;28;20034;-77
2022/01/26 08:35:37;;;;;;;49.25;17.27;;;3.90;99.90;;;;;;5007373;28;20092;-76
2022/01/26 08:38:03;;;;;;;60.25;18.90;;;3.90;99.90;;;;;;4992046;28;20026;-77
2022/01/26 08:40:30;;;;;;;55.20;20.17;;;3.90;99.90;;;;;;5009729;28;20037;-77
2022/01/26 08:42:56;;;;;;;44.53;17.92;;;3.90;99.90;;;;;;5003083;28;20022;-79
2022/01/26 08:45:22;;;;;;;44.88;17.85;;;3.90;99.90;;;;;;5006323;28;20026;-76
2022/01/26 08:47:49;;;;;;;48.83;17.00;;;3.90;99.90;;;;;;5006063;28;20472;-76
2022/01/26 08:50:15;;;;;;;49.60;19.70;;;3.90;99.90;;;;;;5006156;28;20072;-77
2022/01/26 08:52:41;;;;;;;46.67;16.70;;;3.80;99.90;;;;;;5007721;28;20034;-78
2022/01/26 08:55:07;;;;;;;51.22;17.67;;;3.90;99.90;;;;;;4989358;28;20336;-77
2022/01/26 08:57:33;;;;;;;49.05;18.77;;;3.90;99.90;;;;;;5006218;28;20491;-77
2022/01/26 09:00:00;;;;;;;47.17;17.52;;;3.90;99.90;;;;;;5003119;28;20030;-76
2022/01/26 09:02:26;;;;;;;48.88;18.00;;;3.90;99.90;;;;;;4988299;28;20034;-77
2022/01/26 09:04:52;;;;;;;50.90;18.70;;;3.90;99.90;;;;;;5005129;28;20391;-76
2022/01/26 09:07:20;;;;;;;45.10;17.77;;;3.90;99.90;;;;;;4992084;28;20056;-77
2022/01/26 09:09:46;;;;;;;49.72;18.67;;;3.90;99.90;;;;;;5010636;28;20116;-77
2022/01/26 09:12:18;;;;;;;49.60;18.15;;;3.90;99.90;;;;;;4988943;28;20034;-77
2022/01/26 09:14:45;;;;;;;51.88;19.08;;;3.90;99.90;;;;;;5006990;28;20030;-77
2022/01/26 09:17:11;;;;;;;51.63;18.45;;;3.80;99.90;;;;;;4991433;28;20372;-77
2022/01/26 09:19:41;;;;;;;51.03;19.15;;;3.80;99.90;;;;;;5005552;28;20037;-77
2022/01/26 09:22:10;;;;;;;52.83;18.95;;;3.80;99.90;;;;;;5006775;28;20030;-77
2022/01/26 09:24:38;;;;;;;51.40;17.75;;;3.90;99.90;;;;;;5008697;28;20073;-77
2022/01/26 09:27:06;;;;;;;50.10;18.60;;;3.90;99.90;;;;;;5007737;28;20030;-77
2022/01/26 09:29:38;;;;;;;49.47;17.60;;;3.90;99.90;;;;;;5005065;28;20042;-77
2022/01/26 09:32:05;;;;;;;49.83;18.98;;;3.90;99.90;;;;;;5010464;28;20496;-78
2022/01/26 09:34:35;;;;;;;55.03;19.48;;;3.80;99.90;;;;;;5009009;28;20515;-78
2022/01/26 09:37:02;;;;;;;56.17;18.67;;;3.90;99.90;;;;;;5009006;28;20109;-77
2022/01/26 09:39:28;;;;;;;52.67;18.55;;;3.90;99.90;;;;;;5005244;28;20285;-76
2022/01/26 09:41:54;;;;;;;53.42;18.73;;;3.90;99.90;;;;;;5008686;28;20083;-77
2022/01/26 09:44:21;;;;;;;54.47;20.90;;;3.90;99.90;;;;;;5012543;28;20026;-76
2022/01/26 09:46:47;;;;;;;55.17;18.88;;;3.90;99.90;;;;;;5005318;28;20035;-77
2022/01/26 09:49:17;;;;;;;58.20;21.15;;;3.80;99.90;;;;;;5004807;28;20032;-77
2022/01/26 09:51:50;;;;;;;51.60;20.38;;;3.80;99.90;;;;;;5006922;28;20030;-77
2022/01/26 09:54:17;;;;;;;52.17;19.70;;;3.80;99.90;;;;;;4983996;28;20041;-78
2022/01/26 09:56:47;;;;;;;54.72;20.42;;;3.80;99.90;;;;;;5007122;28;20034;-76
2022/01/26 09:59:14;;;;;;;58.20;21.48;;;3.90;99.90;;;;;;4980501;28;20022;-77
2022/01/26 10:01:48;;;;;;;54.58;20.50;;;3.80;99.90;;;;;;4976794;28;20026;-77
2022/01/26 10:04:28;;;;;;;48.85;20.25;;;3.90;99.90;;;;;;5007613;28;20029;-77
2022/01/26 10:07:07;;;;;;;46.65;19.00;;;3.90;99.90;;;;;;5011025;28;20030;-77
2022/01/26 10:17:39;;;;;;;48.03;19.35;;;4.00;99.90;;;;;;5001570;28;20041;-76
2022/01/26 10:20:14;;;;;;;54.97;20.13;;;3.90;99.90;;;;;;4976866;28;20094;-76
2022/01/26 10:22:41;;;;;;;52.40;20.80;;;3.90;99.90;;;;;;5009435;28;20557;-75
2022/01/26 10:25:17;;;;;;;56.65;20.75;;;3.90;99.90;;;;;;4994476;28;20033;-76
2022/01/26 10:27:45;;;;;;;56.35;19.90;;;3.90;99.90;;;;;;4990862;28;20040;-75
2022/01/26 10:30:14;;;;;;;59.15;20.25;;;3.90;99.90;;;;;;5006722;28;20082;-76
2022/01/26 10:32:42;;;;;;;53.03;19.33;;;3.90;99.90;;;;;;5002245;28;20045;-76
2022/01/26 10:35:09;;;;;;;58.60;21.02;;;3.90;99.90;;;;;;5003988;28;20035;-76
2022/01/26 10:37:38;;;;;;;56.53;20.58;;;3.90;99.90;;;;;;5003437;28;20026;-76
2022/01/26 10:40:18;;;;;;;55.28;20.17;;;3.90;99.90;;;;;;5007377;28;20076;-76
2022/01/26 10:43:05;;;;;;;56.50;20.77;;;3.90;99.90;;;;;;5005944;28;20032;-76
2022/01/26 10:46:06;;;;;;;51.33;19.40;;;3.90;99.90;;;;;;5003026;28;20026;-76
2022/01/26 10:48:39;;;;;;;59.30;19.08;;;3.90;99.90;;;;;;5005505;28;20054;-76
2022/01/26 10:53:47;;;;;;;51.88;18.85;;;3.90;99.90;;;;;;5003592;28;20306;-76
2022/01/26 10:56:13;;;;;;;59.30;20.10;;;3.90;99.90;;;;;;5001752;28;20058;-76
2022/01/26 10:58:40;;;;;;;60.72;20.52;;;3.80;99.90;;;;;;4988728;28;20083;-76
2022/01/26 11:01:07;;;;;;;51.88;17.95;;;3.90;99.90;;;;;;5006900;28;20022;-76
2022/01/26 11:03:36;;;;;;;56.90;19.50;;;3.80;99.90;;;;;;4992114;28;20101;-76
2022/01/26 11:06:06;;;;;;;55.25;20.27;;;3.80;99.90;;;;;;5014972;28;20395;-77
2022/01/26 11:08:38;;;;;;;50.33;18.03;;;3.80;99.90;;;;;;5013363;28;20038;-76
2022/01/26 11:11:04;;;;;;;54.70;20.23;;;3.70;99.90;;;;;;5008509;28;20293;-77
2022/01/26 11:13:36;;;;;;;57.35;19.63;;;3.70;99.90;;;;;;5009687;28;20030;-77
2022/01/26 11:16:16;;;;;;;53.90;19.85;;;3.70;99.90;;;;;;5009829;28;20480;-72
2022/01/26 11:18:58;;;;;;;55.65;19.90;;;3.70;99.90;;;;;;5006831;28;20525;-76
2022/01/26 11:21:44;;;;;;;59.85;20.33;;;3.70;99.90;;;;;;4986181;28;20033;-73
2022/01/26 11:24:23;;;;;;;58.47;19.98;;;3.70;99.90;;;;;;4988686;28;20038;-72
2022/01/26 11:27:04;;;;;;;57.85;19.38;;;3.60;99.90;;;;;;5010434;28;20037;-73
2022/01/26 11:29:34;;;;;;;61.47;20.65;;;3.60;99.90;;;;;;5013031;28;20030;-75
2022/01/26 11:32:10;;;;;;;65.30;20.02;;;3.70;99.90;;;;;;4995420;28;20042;-74
2022/01/26 11:34:37;;;;;;;62.25;20.92;;;3.70;99.90;;;;;;5010613;28;20534;-74
2022/01/26 11:37:06;;;;;;;63.10;20.70;;;3.70;99.90;;;;;;5010740;28;20041;-74
2022/01/26 11:45:03;;;;;;;58.35;18.75;;;3.70;99.90;;;;;;5016244;28;20476;-74
2022/01/26 11:45:12;;;;;;;73.30;20.95;;;3.70;99.90;;;;;;5011729;28;20036;-73
2022/01/26 11:48:01;;;;;;;58.50;19.52;;;3.70;99.90;;;;;;5012798;28;20420;-74
2022/01/26 11:50:28;;;;;;;64.57;21.40;;;3.70;99.90;;;;;;4984822;28;20050;-74
2022/01/26 11:53:09;;;;;;;58.05;20.73;;;3.70;99.90;;;;;;5012294;28;20046;-74
2022/01/26 11:55:43;;;;;;;59.60;20.98;;;3.60;99.90;;;;;;5007851;28;20034;-73
2022/01/26 11:58:30;;;;;;;61.80;21.25;;;3.70;99.90;;;;;;5004455;28;20030;-73
2022/01/26 12:04:08;;;;;;;62.97;21.02;;;3.70;99.90;;;;;;5005330;28;20465;-74
2022/01/26 12:06:38;;;;;;;64.80;21.40;;;3.70;99.90;;;;;;5010653;28;20543;-74
2022/01/26 12:09:07;;;;;;;64.68;21.98;;;3.80;99.90;;;;;;5015795;28;20033;-74
2022/01/26 12:11:33;;;;;;;58.92;20.15;;;3.90;99.90;;;;;;4994503;28;20022;-74
2022/01/26 12:14:05;;;;;;;60.72;20.50;;;3.80;99.90;;;;;;5010324;28;20548;-74
2022/01/26 12:16:38;;;;;;;66.40;23.30;;;3.80;99.90;;;;;;5015522;28;20026;-74
2022/01/26 12:35:58;;;;;;;64.93;22.17;;;3.60;99.90;;;;;;5004711;28;20399;-74
2022/01/26 12:38:32;;;;;;;70.88;24.25;;;3.60;99.90;;;;;;5007585;28;20404;-74
2022/01/26 12:44:08;;;;;;;75.65;23.65;;;3.50;99.90;;;;;;5012131;28;20058;-74
2022/01/26 12:46:36;;;;;;;263.00;100.97;;;3.50;99.90;;;;;;5006475;28;20034;-75
2022/01/26 12:49:07;;;;;;;366.60;171.30;;;3.50;99.90;;;;;;4992440;28;20141;-75
2022/01/26 12:51:45;;;;;;;125.32;52.05;;;3.50;99.90;;;;;;5005993;28;20072;-74
2022/01/26 12:54:12;;;;;;;67.90;23.40;;;3.50;99.90;;;;;;5006943;28;20408;-74
2022/01/26 12:56:38;;;;;;;73.30;23.27;;;3.60;99.90;;;;;;5007904;28;20818;-75
2022/01/26 12:59:13;;;;;;;78.47;23.95;;;3.60;99.90;;;;;;5008722;28;20104;-74
2022/01/26 13:01:41;;;;;;;70.65;22.75;;;3.60;99.90;;;;;;5010014;28;20022;-74
2022/01/26 13:04:10;;;;;;;77.00;23.05;;;3.60;99.90;;;;;;5017748;28;20049;-74
2022/01/26 13:06:40;;;;;;;69.85;23.13;;;3.60;99.90;;;;;;5010574;28;20018;-74
2022/01/26 13:09:17;;;;;;;72.78;22.90;;;3.60;99.90;;;;;;5014741;28;20368;-74
2022/01/26 13:11:46;;;;;;;71.50;23.00;;;3.60;99.90;;;;;;5011562;28;20080;-74
2022/01/26 13:14:29;;;;;;;73.95;22.73;;;3.60;99.90;;;;;;5006744;28;20045;-74
2022/01/26 13:17:20;;;;;;;67.72;22.42;;;3.70;99.90;;;;;;5007947;28;20124;-74
2022/01/26 13:25:52;;;;;;;69.75;21.92;;;3.60;99.90;;;;;;5007107;28;20491;-75
2022/01/26 13:34:33;;;;;;;63.40;21.73;;;3.70;99.90;;;;;;4998587;28;20064;-74
2022/01/26 13:37:03;;;;;;;77.13;22.70;;;3.60;99.90;;;;;;5009406;28;20062;-74
2022/01/26 13:45:52;;;;;;;71.35;23.65;;;3.70;99.90;;;;;;5003627;28;20438;-74
2022/01/26 13:48:51;;;;;;;71.05;23.77;;;3.70;99.90;;;;;;5006780;28;20029;-74
2022/01/26 13:53:58;;;;;;;76.07;24.15;;;3.70;99.90;;;;;;5006401;28;20033;-74
2022/01/26 13:59:37;;;;;;;72.05;23.80;;;3.70;99.90;;;;;;4922047;28;20050;-74
2022/01/26 14:02:03;;;;;;;78.80;25.67;;;3.70;99.90;;;;;;5005442;28;20045;-73
2022/01/26 14:04:29;;;;;;;77.80;25.30;;;3.60;99.90;;;;;;5004205;28;20622;-73
2022/01/26 14:06:55;;;;;;;70.07;24.58;;;3.60;99.90;;;;;;4994457;28;20093;-73
2022/01/26 14:09:20;;;;;;;78.10;24.60;;;3.60;99.90;;;;;;5007746;28;20499;-75
2022/01/26 14:11:47;;;;;;;72.68;24.17;;;3.70;99.90;;;;;;5005696;28;20018;-74
2022/01/26 14:14:20;;;;;;;68.95;24.88;;;3.70;99.90;;;;;;5008075;28;20034;-73
2022/01/26 14:16:55;;;;;;;81.75;23.67;;;3.70;99.90;;;;;;5004135;28;20112;-73
2022/01/26 14:27:25;;;;;;;74.15;24.02;;;3.70;99.90;;;;;;4998880;28;20112;-73
2022/01/26 14:32:42;;;;;;;75.95;23.65;;;3.80;99.90;;;;;;5008088;28;20716;-73
2022/01/26 14:35:40;;;;;;;76.80;25.10;;;3.80;99.90;;;;;;5007741;28;20563;-74
2022/01/26 14:54:44;;;;;;;62.88;22.23;;;3.80;99.90;;;;;;5005165;28;20097;-73
2022/01/26 15:40:22;;;;;;;77.93;25.02;;;3.90;99.90;;;;;;5010983;28;20026;-73
2022/01/26 15:51:00;;;;;;;81.88;25.83;;;4.00;99.90;;;;;;5007205;28;20076;-73
2022/01/26 16:35:10;;;;;;;83.75;27.20;;;4.10;99.90;;;;;;5008635;28;20092;-74
2022/01/26 18:17:19;;;;;;;97.07;29.38;;;4.50;99.90;;;;;;5014035;28;20044;-73
2022/01/26 18:49:20;;;;;;;89.72;30.63;;;4.50;99.90;;;;;;5007788;28;20570;-73
2022/01/26 18:51:53;;;;;;;86.03;29.48;;;4.60;99.90;;;;;;5003059;28;20112;-74
2022/01/26 18:54:26;;;;;;;83.35;29.33;;;4.60;99.90;;;;;;5007265;28;20034;-73
2022/01/26 18:56:55;;;;;;;95.97;29.77;;;4.60;99.90;;;;;;4993866;28;20092;-72
2022/01/26 18:59:23;;;;;;;91.15;30.90;;;4.60;99.90;;;;;;5009075;28;20076;-73
2022/01/26 19:01:52;;;;;;;83.90;29.27;;;4.60;99.90;;;;;;5008693;28;20053;-73
2022/01/26 19:04:38;;;;;;;96.60;29.60;;;4.60;99.90;;;;;;5005308;28;20026;-74
2022/01/26 19:07:07;;;;;;;90.43;29.98;;;4.60;99.90;;;;;;5005640;28;20040;-72
2022/01/26 19:09:38;;;;;;;81.72;27.40;;;4.70;99.90;;;;;;4996299;28;20022;-72
2022/01/26 19:12:07;;;;;;;83.22;28.67;;;4.70;99.90;;;;;;4996958;28;20030;-74
2022/01/26 19:14:37;;;;;;;86.43;27.17;;;4.70;99.90;;;;;;5004600;28;20053;-74
2022/01/26 19:24:59;;;;;;;79.63;27.83;;;4.70;99.90;;;;;;4925347;29;20692;-73
2022/01/26 19:33:28;;;;;;;90.80;29.48;;;4.70;99.90;;;;;;4916706;29;20036;-73
2022/01/26 19:44:06;;;;;;;80.97;29.35;;;4.60;99.90;;;;;;4916279;29;20039;-71
2022/01/26 19:54:17;;;;;;;84.97;27.30;;;4.60;99.90;;;;;;4913556;29;20040;-71
2022/01/26 19:56:43;;;;;;;81.78;27.25;;;4.70;99.90;;;;;;4912013;29;20039;-70
2022/01/26 19:59:08;;;;;;;85.50;28.10;;;4.70;99.90;;;;;;4914844;29;20578;-70
2022/01/26 20:01:34;;;;;;;76.75;25.63;;;4.70;99.90;;;;;;4949200;28;20100;-71
2022/01/26 20:04:00;;;;;;;77.30;26.20;;;4.70;99.90;;;;;;5003841;28;20036;-70